Galeville, New York
Current Conditions -  °F | °C
As of 10:54 AM on Tuesday 27 Jan 2015 (Local Time) from KSYR Reporting Station
Broken Clouds Broken Clouds  
Wind Chill: -5°   Ceiling: 24000
Heat Index:   Visibility: 10mi
Dew Point: -1°   Wind: 9mph
Humidity: 67%   Direction: 290°WNW
Pressure: 29.94"   Gusts: NA
Location:  43.1098°N, 76.1878°W
Report Text: KSYR 271554Z 29008KT 10SM SCT140 BKN240 M13/M18 A2994 RMK AO2 SLP142 T11331183 $
Loading
Personal Weather Stations






























Interactive Weather Map New forecast layout! Learn more

10-Day Weather Forecast

Advertisements
Track Severe Weather on mobile